Latest Weather Observations for The Monument

IDQ60801

Issued at 4:32 pm EST Saturday 10 December 2016 (issued every 30 minutes, with the page automatically refreshed every 10 minutes)

About weather observations | Map of weather stations | Latest weather observations for QLD | Other Formats
Station Details ID: 037034 Name: THE MONUMENT AIRPORT Lat: -21.81 Lon: 139.93 Height: 288.4 m
Data from the previous 72 hours. | See also: Recent months at The Monument
Date/Time
EST
Temp
°C
App
Temp
°C
Dew
Point
°C
Rel
Hum
%
Delta-T
°C
Wind Press
QNH
hPa
Press
MSL
hPa
Rain since
9am
mm
Dir  Spd
km/h
Gust
km/h
Spd
kts
Gust
kts
10/04:30pm 36.4 33.2 8.3 18 16.1 S 15 32 8 17 1009.5 1007.2 0.0
10/04:00pm 37.2 34.7 9.7 19 16.2 S 13 28 7 15 1009.9 1007.6 0.0
10/03:30pm 36.2 33.7 9.7 20 15.5 S 13 24 7 13 1010.4 1008.2 0.0
10/03:00pm 35.7 33.7 10.0 21 15.1 SSW 11 19 6 10 1010.8 1008.6 0.0
10/02:30pm 36.2 33.1 10.4 21 15.3 ESE 17 24 9 13 1011.1 1008.9 0.0
10/02:00pm 35.9 32.8 10.2 21 15.1 S 17 28 9 15 1011.6 1009.4 0.0
10/01:30pm 35.6 33.7 11.9 24 14.3 SSE 13 24 7 13 1012.1 1009.9 0.0
10/01:00pm 34.5 32.2 11.6 25 13.7 ESE 15 24 8 13 1012.7 1010.5 0.0
10/12:30pm 33.6 31.0 12.0 27 12.9 SSE 17 30 9 16 1013.3 1011.1 0.0
10/12:00pm 33.0 30.4 12.1 28 12.5 ESE 17 28 9 15 1013.9 1011.7 0.0
10/11:30am 33.7 30.7 12.7 28 12.7 SE 20 33 11 18 1014.4 1012.2 0.0
10/11:00am 32.4 29.0 9.2 24 13.3 SSE 17 32 9 17 1014.7 1012.5 0.0
10/10:30am 31.9 28.1 7.5 22 13.5 SSE 17 30 9 16 1015.0 1012.8 0.0
10/10:00am 30.1 25.1 4.7 20 13.3 SSE 20 30 11 16 1015.1 1012.9 0.0
10/09:30am 29.5 23.9 3.5 19 13.3 SE 22 32 12 17 1015.2 1013.0 0.0
10/09:00am 28.0 21.8 2.2 19 12.8 SSE 24 33 13 18 1015.2 1013.0 0.0
10/08:30am 26.2 20.8 2.2 21 11.8 SSE 20 30 11 16 1015.5 1013.3 0.0
10/08:00am 25.2 19.6 1.3 21 11.4 SSE 20 32 11 17 1015.5 1013.3 0.0
10/07:30am 24.0 18.5 1.6 23 10.7 SSE 20 28 11 15 1015.5 1013.3 0.0
10/07:00am 23.4 18.1 1.7 24 10.3 SSE 19 26 10 14 1015.0 1012.8 0.0
10/06:30am 22.9 18.6 1.3 24 10.2 S 13 19 7 10 1014.7 1012.5 0.0
10/06:00am 22.9 18.6 1.3 24 10.2 SSE 13 17 7 9 1014.0 1011.8 0.0
10/05:30am 23.1 18.9 1.5 24 10.2 S 13 17 7 9 1013.8 1011.6 0.0
10/05:00am 22.8 18.9 1.2 24 10.1 S 11 15 6 8 1013.7 1011.5 0.0
10/04:30am 23.1 18.8 0.9 23 10.4 S 13 19 7 10 1013.2 1011.0 0.0
10/04:00am 23.6 18.9 0.7 22 10.7 S 15 22 8 12 1012.5 1010.3 0.0
10/03:30am 24.0 18.9 1.0 22 10.9 S 17 20 9 11 1012.4 1010.2 0.0
10/03:00am 24.4 19.3 0.7 21 11.2 S 17 24 9 13 1012.4 1010.2 0.0
10/02:30am 24.9 19.7 0.4 20 11.5 S 17 26 9 14 1012.5 1010.3 0.0
10/02:00am 25.3 20.2 0.8 20 11.6 SSE 17 22 9 12 1012.8 1010.6 0.0
10/01:30am 25.6 20.5 1.0 20 11.7 S 17 22 9 12 1013.2 1011.0 0.0
10/01:00am 26.0 21.4 1.3 20 11.9 SSE 15 19 8 10 1013.2 1011.0 0.0
10/12:30am 26.8 21.8 1.3 19 12.3 SSE 17 24 9 13 1013.4 1011.2 0.0
10/12:00am 27.3 21.8 0.9 18 12.7 SSE 19 26 10 14 1013.5 1011.3 0.0
 
Date/Time
EST
Temp
°C
App
Temp
°C
Dew
Point
°C
Rel
Hum
%
Delta-T
°C
Wind Press
QNH
hPa
Press
MSL
hPa
Rain since
9am
mm
Dir  Spd
km/h
Gust
km/h
Spd
kts
Gust
kts
09/11:30pm 28.0 23.0 1.5 18 13.0 SSE 17 24 9 13 1013.7 1011.5 0.0
09/11:00pm 28.8 23.5 2.1 18 13.3 SSE 19 30 10 16 1013.5 1011.3 0.0
09/10:30pm 29.4 25.0 2.6 18 13.5 SSE 15 20 8 11 1013.6 1011.4 0.0
09/10:00pm 30.0 24.7 3.1 18 13.7 SSE 20 28 11 15 1013.3 1011.1 0.0
09/09:30pm 29.5 26.3 6.8 24 12.3 S 13 17 7 9 1013.3 1011.1 0.0
09/09:00pm 28.7 26.9 7.9 27 11.4 SSW 7 9 4 5 1012.7 1010.5 0.0
09/08:30pm 29.0 27.4 8.1 27 11.5 SE 6 6 3 3 1012.6 1010.4 0.0
09/08:00pm 30.1 29.6 7.9 25 12.3 CALM 0 0 0 0 1012.5 1010.3 0.0
09/07:30pm 30.5 28.3 7.7 24 12.6 SSE 9 11 5 6 1012.1 1009.9 0.0
09/07:00pm 31.2 28.2 7.6 23 13.1 SSE 13 20 7 11 1011.9 1009.7 0.0
09/06:30pm 31.9 28.3 6.9 21 13.7 S 15 20 8 11 1011.7 1009.5 0.0
09/06:00pm 32.2 28.7 7.1 21 13.9 S 15 20 8 11 1011.5 1009.3 0.0
09/05:30pm 32.0 29.1 8.3 23 13.3 SSW 13 20 7 11 1011.6 1009.4 0.0
09/05:00pm 32.1 28.5 8.4 23 13.4 S 17 22 9 12 1011.6 1009.4 0.0
09/04:30pm 31.8 28.5 8.1 23 13.3 S 15 26 8 14 1011.5 1009.3 0.0
09/04:00pm 31.3 27.3 8.3 24 12.9 S 19 26 10 14 1011.6 1009.4 0.0
09/03:30pm 31.3 27.0 7.7 23 13.1 S 20 28 11 15 1011.8 1009.6 0.0
09/03:00pm 31.9 27.1 7.5 22 13.5 S 22 32 12 17 1011.9 1009.7 0.0
09/02:30pm 31.7 27.6 8.7 24 13.0 SSW 20 32 11 17 1012.1 1009.9 0.0
09/02:00pm 31.1 27.5 9.9 27 12.2 SSE 19 28 10 15 1012.3 1010.1 0.0
09/01:30pm 31.2 28.2 10.5 28 12.0 S 17 30 9 16 1013.1 1010.8 0.0
09/01:00pm 29.8 25.9 8.8 27 11.8 SSE 19 26 10 14 1013.5 1011.3 0.0
09/12:30pm 29.9 26.1 8.9 27 11.8 S 19 28 10 15 1013.8 1011.6 0.0
09/12:00pm 29.7 26.0 9.3 28 11.5 S 19 28 10 15 1014.0 1011.8 0.0
09/11:30am 28.1 24.9 9.9 32 10.3 S 17 24 9 13 1014.3 1012.1 0.0
09/11:00am 27.9 23.9 9.2 31 10.5 S 20 28 11 15 1014.7 1012.5 0.0
09/10:30am 27.4 23.4 8.3 30 10.5 S 19 26 10 14 1014.6 1012.4 0.0
09/10:00am 27.2 22.8 7.6 29 10.6 SSE 20 28 11 15 1014.9 1012.7 0.0
09/09:30am 27.2 22.6 8.1 30 10.4 S 22 32 12 17 1015.2 1013.0 0.0
09/09:00am 26.8 22.5 7.8 30 10.3 SSE 20 28 11 15 1015.3 1013.1 0.0
09/08:30am 26.6 22.6 8.1 31 10.1 S 19 28 10 15 1015.3 1013.1 0.0
09/08:00am 25.9 22.2 9.3 35 9.2 S 19 28 10 15 1015.3 1013.1 0.0
09/07:30am 24.4 22.4 12.7 48 6.8 S 15 20 8 11 1015.0 1012.8 0.0
09/07:00am 23.6 21.4 14.3 56 5.5 S 19 24 10 13 1014.8 1012.6 0.0
09/06:30am 23.8 21.9 14.2 55 5.7 S 17 26 9 14 1014.2 1012.0 0.0
09/06:00am 23.7 21.6 14.7 57 5.4 S 19 28 10 15 1013.6 1011.4 0.0
09/05:30am 23.7 21.6 14.7 57 5.4 S 19 26 10 14 1012.9 1010.7 0.0
09/05:00am 23.8 21.8 15.6 60 5.0 S 20 26 11 14 1012.6 1010.4 0.0
09/04:30am 24.3 22.7 16.0 60 5.1 S 19 30 10 16 1012.3 1010.1 0.0
09/04:00am 24.3 23.1 17.1 64 4.5 S 19 24 10 13 1012.1 1009.9 0.0
09/03:30am 24.4 23.6 17.1 63 4.6 SSE 17 24 9 13 1012.1 1009.9 0.0
09/03:00am 24.4 22.1 16.6 61 4.8 S 24 33 13 18 1011.9 1009.7 0.0
09/02:30am 24.9 22.5 16.3 59 5.3 SSE 24 37 13 20 1011.8 1009.6 0.0
09/02:00am 25.2 24.3 16.9 60 5.2 S 17 26 9 14 1011.7 1009.5 0.0
09/01:30am 24.9 23.3 17.4 63 4.7 S 22 35 12 19 1011.8 1009.6 0.0
09/01:00am 25.8 22.7 16.6 56 5.7 S 28 41 15 22 1011.9 1009.7 0.0
09/12:30am 26.2 24.2 16.4 54 6.1 S 22 30 12 16 1012.5 1010.3 0.0
09/12:00am 26.3 24.7 16.5 54 6.1 S 20 30 11 16 1012.8 1010.6 0.0
 
Date/Time
EST
Temp
°C
App
Temp
°C
Dew
Point
°C
Rel
Hum
%
Delta-T
°C
Wind Press
QNH
hPa
Press
MSL
hPa
Rain since
9am
mm
Dir  Spd
km/h
Gust
km/h
Spd
kts
Gust
kts
08/11:30pm 26.5 24.4 16.1 52 6.5 S 22 33 12 18 1013.2 1011.0 0.0
08/11:00pm 26.9 23.8 15.6 50 7.0 S 26 39 14 21 1013.3 1011.1 0.0
08/10:32pm 27.3 23.7 15.3 48 7.4 S 28 46 15 25 1013.5 1011.3 0.0
08/10:30pm 27.4 23.9 15.4 48 7.4 S 28 43 15 23 1013.5 1011.3 0.0
08/10:00pm 27.9 24.4 15.5 46 7.7 S 28 41 15 22 1013.2 1011.0 0.0
08/09:30pm 28.3 24.4 15.6 46 7.9 SSE 30 39 16 21 1012.9 1010.7 0.0
08/09:00pm 28.9 25.0 15.4 44 8.4 S 30 41 16 22 1013.2 1011.0 0.0
08/08:54pm 29.1 25.0 16.0 45 8.2 S 32 50 17 27 1013.1 1010.8 0.0
08/08:30pm 29.6 25.6 16.8 46 8.1 S 33 46 18 25 1012.6 1010.4 0.0
08/08:00pm 30.5 26.8 16.9 44 8.7 S 32 46 17 25 1011.6 1009.4 0.0
08/07:30pm 31.0 26.6 16.6 42 9.2 S 35 56 19 30 1010.8 1008.6 0.0
08/07:14pm 31.6 27.5 16.0 39 9.8 SSE 32 50 17 27 1010.5 1008.3 0.0
08/07:00pm 31.8 26.7 15.7 37 10.1 S 37 50 20 27 1010.1 1007.9 0.0
08/06:30pm 32.9 28.0 15.4 35 11.0 S 35 52 19 28 1009.3 1007.1 0.0
08/06:00pm 33.8 29.1 14.8 32 11.9 S 33 46 18 25 1008.7 1006.5 0.0
08/05:33pm 34.3 28.8 14.7 30 12.3 S 37 56 20 30 1008.3 1006.1 0.0
08/05:30pm 34.4 28.4 14.3 30 12.5 S 39 56 21 30 1008.1 1005.9 0.0
08/05:00pm 36.3 30.5 14.9 28 13.5 S 39 54 21 29 1007.4 1005.2 0.0
08/04:31pm 35.9 30.7 14.5 27 13.4 SSW 35 54 19 29 1007.1 1004.9 0.0
08/04:30pm 35.9 30.3 14.5 27 13.4 SSW 37 54 20 29 1007.1 1004.9 0.0
08/04:03pm 36.2 30.3 13.6 25 14.0 S 37 57 20 31 1007.2 1005.0 0.0
08/04:00pm 36.6 30.5 14.0 26 14.1 S 39 54 21 29 1007.1 1004.9 0.0
08/03:41pm 38.5 32.8 14.3 23 15.3 S 37 56 20 30 1006.7 1004.4 0.0
08/03:30pm 38.1 31.2 14.6 24 14.9 S 44 57 24 31 1006.7 1004.4 0.0
08/03:00pm 39.3 33.8 13.7 22 16.1 SSW 35 54 19 29 1006.6 1004.3 0.0
08/02:30pm 40.4 35.7 13.1 20 17.0 SSW 30 48 16 26 1006.7 1004.4 0.0
08/02:28pm 40.6 36.3 13.3 20 17.1 SSW 28 48 15 26 1006.7 1004.4 0.0
08/02:00pm 39.1 35.9 12.0 20 16.6 SW 20 32 11 17 1007.2 1005.0 0.0
08/01:30pm 40.0 37.6 12.8 20 16.9 SSW 17 24 9 13 1007.6 1005.4 0.0
08/01:00pm 40.0 39.2 12.8 20 16.9 SW 9 15 5 8 1007.9 1005.7 0.0
08/12:30pm 40.0 40.2 14.2 21 16.3 N 6 13 3 7 1008.3 1006.1 0.0
08/12:00pm 37.8 36.8 12.4 22 15.6 WSW 9 17 5 9 1008.7 1006.5 0.0
08/11:30am 37.1 36.8 13.2 24 14.8 WNW 7 17 4 9 1009.1 1006.9 0.0
08/11:00am 36.8 36.4 12.9 24 14.7 NNE 7 15 4 8 1009.6 1007.3 0.0
08/10:30am 35.5 35.9 13.6 26 13.5 ENE 4 7 2 4 1009.6 1007.3 0.0
08/10:00am 34.3 34.0 13.2 28 12.9 E 7 15 4 8 1009.7 1007.4 0.0
08/09:30am 33.7 32.4 13.7 30 12.3 SSE 13 22 7 12 1009.9 1007.6 0.0
08/09:00am 33.1 31.6 14.2 32 11.7 SSE 15 20 8 11 1010.0 1007.8 0.0
08/08:30am 32.1 30.5 13.8 33 11.2 SSE 15 24 8 13 1010.2 1008.0 0.0
08/08:00am 31.0 29.6 14.6 37 10.1 SSE 15 24 8 13 1010.1 1007.9 0.0
08/07:30am 29.9 29.0 14.8 39 9.3 S 13 17 7 9 1010.2 1008.0 0.0
08/07:00am 28.9 26.9 13.9 39 9.1 S 17 24 9 13 1009.6 1007.3 0.0
08/06:30am 27.8 26.9 13.7 42 8.5 SSW 11 15 6 8 1009.3 1007.1 0.0
08/06:00am 26.9 25.9 13.3 43 8.1 SSW 11 13 6 7 1008.9 1006.7 0.0
08/05:30am 27.0 26.1 12.6 41 8.5 S 9 11 5 6 1008.3 1006.1 0.0
08/05:00am 27.7 26.8 12.5 39 9.0 S 9 11 5 6 1008.1 1005.9 0.0
08/04:30am 28.6 27.8 12.9 38 9.4 S 9 13 5 7 1008.1 1005.9 0.0
08/04:00am 29.5 27.9 12.9 36 9.9 SSE 13 17 7 9 1008.1 1005.9 0.0
08/03:30am 29.8 27.8 12.7 35 10.2 SSE 15 20 8 11 1007.8 1005.6 0.0
08/03:00am 29.6 28.0 12.9 35 10.0 SSE 13 19 7 10 1007.9 1005.7 0.0
08/02:30am 29.9 27.9 12.8 35 10.2 SSE 15 20 8 11 1008.2 1006.0 0.0
08/02:00am 30.2 28.5 12.6 34 10.5 SSE 13 19 7 10 1008.3 1006.1 0.0
08/01:30am 30.8 28.4 12.7 33 10.8 SSE 17 24 9 13 1008.5 1006.3 0.0
08/01:00am 31.9 29.5 12.7 31 11.6 S 17 26 9 14 1008.6 1006.4 0.0
08/12:30am 32.0 31.5 13.7 33 11.2 SE 9 13 5 7 1008.6 1006.4 0.0
08/12:00am 31.8 30.4 13.5 32 11.2 SSE 13 13 7 7 1008.8 1006.6 0.0
 
Date/Time
EST
Temp
°C
App
Temp
°C
Dew
Point
°C
Rel
Hum
%
Delta-T
°C
Wind Press
QNH
hPa
Press
MSL
hPa
Rain since
9am
mm
Dir  Spd
km/h
Gust
km/h
Spd
kts
Gust
kts
07/11:30pm 32.0 30.8 12.8 31 11.6 SE 11 13 6 7 1009.0 1006.8 0.0
07/11:00pm 32.2 31.0 12.9 31 11.7 SE 11 13 6 7 1009.0 1006.8 0.0
07/10:30pm 33.4 33.2 13.5 30 12.2 SSE 7 11 4 6 1008.9 1006.7 0.0
07/10:00pm 34.4 33.7 13.3 28 13.0 S 9 11 5 6 1008.7 1006.5 0.0
07/09:30pm 34.8 32.7 13.6 28 13.1 S 17 20 9 11 1008.7 1006.5 0.0
07/09:00pm 35.2 33.6 12.8 26 13.7 S 13 17 7 9 1008.9 1006.7 0.0
07/08:30pm 35.4 32.5 12.4 25 14.0 SE 19 30 10 16 1008.6 1006.4 0.0
07/08:00pm 36.4 36.2 11.9 23 14.9 E 4 7 2 4 1007.9 1005.7 0.0
07/07:30pm 36.6 33.2 11.4 22 15.2 NE 20 32 11 17 1007.7 1005.5 0.0
07/07:16pm 36.6 31.7 11.4 22 15.2 NE 28 46 15 25 1007.8 1005.6 0.0
07/07:00pm 35.6 31.3 13.1 25 13.8 NE 28 39 15 21 1007.8 1005.6 0.0
07/06:30pm 36.2 29.5 12.4 24 14.5 NE 39 52 21 28 1007.6 1005.4 0.0
07/06:02pm 38.2 34.3 12.0 21 16.0 E 24 50 13 27 1007.3 1005.1 0.0
07/06:00pm 39.4 36.5 12.3 20 16.7 E 19 39 10 21 1007.3 1005.1 0.0
07/05:30pm 41.3 40.0 11.3 17 18.3 SW 9 13 5 7 1006.9 1004.7 0.0
07/05:00pm 40.2 38.7 10.5 17 17.9 SW 9 20 5 11 1006.8 1004.5 0.0

Other Formats:

Comma delimited format used in spreadsheet applications
http://www.bom.gov.au/fwo/IDQ60801/IDQ60801.94336.axf

JavaScript Object Notation format (JSON) in row-major order
http://www.bom.gov.au/fwo/IDQ60801/IDQ60801.94336.json